N8244L MPRA-MPMG
Flight info
| Callsign | N8244L |
|---|---|
| Flight time | 0h 10m |
| Altitude | 10500 |
| Route | TBG |
| Aircraft | STAR/L-SDFGRWY/S |
Departure
| Time | 2026-05-05 02:25 |
|---|---|
| Airport | Raul Arias Espinoza Airport (MPRA) |
Arrival
| Time | 2026-05-05 02:35 |
|---|---|
| Airport | Marcos A. Gelabert International Airport (MPMG) |
| Time | Latitude | Longitude | Altitude | Speed | Heading |
|---|---|---|---|---|---|
| 2026-05-05 02:25 | 8.66191 | -79.14283 | 6595 ft | 197 kts | 285° |
| 2026-05-05 02:25 | 8.66496 | -79.15633 | 7499 ft | 198 kts | 288° |
| 2026-05-05 02:25 | 8.66921 | -79.16966 | 8433 ft | 201 kts | 291° |
| 2026-05-05 02:26 | 8.67350 | -79.18322 | 9380 ft | 206 kts | 288° |
| 2026-05-05 02:26 | 8.67774 | -79.19784 | 9953 ft | 229 kts | 288° |
| 2026-05-05 02:26 | 8.68266 | -79.21420 | 10220 ft | 257 kts | 288° |
| 2026-05-05 02:26 | 8.68818 | -79.23226 | 10357 ft | 280 kts | 288° |
| 2026-05-05 02:27 | 8.69399 | -79.25165 | 10424 ft | 296 kts | 288° |
| 2026-05-05 02:27 | 8.70010 | -79.27189 | 10459 ft | 305 kts | 288° |
| 2026-05-05 02:27 | 8.70637 | -79.29264 | 10470 ft | 312 kts | 288° |
| 2026-05-05 02:27 | 8.71273 | -79.31373 | 10476 ft | 315 kts | 288° |
| 2026-05-05 02:28 | 8.71915 | -79.33501 | 10486 ft | 317 kts | 288° |
| 2026-05-05 02:28 | 8.72558 | -79.35630 | 10487 ft | 317 kts | 288° |
| 2026-05-05 02:28 | 8.72765 | -79.36315 | 10487 ft | 317 kts | 288° |
| 2026-05-05 02:29 | 8.73335 | -79.38212 | 10483 ft | 317 kts | 288° |
| 2026-05-05 02:29 | 8.73967 | -79.40299 | 10483 ft | 295 kts | 288° |
| 2026-05-05 02:29 | 8.74546 | -79.42222 | 9877 ft | 287 kts | 288° |
| 2026-05-05 02:29 | 8.75130 | -79.44166 | 9164 ft | 283 kts | 288° |
| 2026-05-05 02:30 | 8.75707 | -79.46074 | 7980 ft | 292 kts | 289° |
| 2026-05-05 02:30 | 8.76294 | -79.48025 | 7075 ft | 287 kts | 289° |
| 2026-05-05 02:30 | 8.76869 | -79.49934 | 6221 ft | 281 kts | 289° |
| 2026-05-05 02:30 | 8.77433 | -79.51807 | 5342 ft | 276 kts | 289° |
| 2026-05-05 02:31 | 8.77998 | -79.53645 | 4472 ft | 270 kts | 292° |
| 2026-05-05 02:31 | 8.78998 | -79.55188 | 3589 ft | 259 kts | 320° |
| 2026-05-05 02:31 | 8.80528 | -79.56033 | 2776 ft | 247 kts | 346° |
| 2026-05-05 02:31 | 8.82211 | -79.56345 | 1847 ft | 244 kts | 358° |
| 2026-05-05 02:32 | 8.83874 | -79.56357 | 1247 ft | 233 kts | 2° |
| 2026-05-05 02:32 | 8.85444 | -79.56366 | 949 ft | 222 kts | 358° |
| 2026-05-05 02:32 | 8.86990 | -79.56432 | 821 ft | 222 kts | 359° |
| 2026-05-05 02:32 | 8.87982 | -79.56392 | 766 ft | 206 kts | 6° |
| 2026-05-05 02:33 | 8.89321 | -79.56225 | 719 ft | 183 kts | 6° |
| 2026-05-05 02:33 | 8.90412 | -79.56129 | 693 ft | 130 kts | 2° |
| 2026-05-05 02:33 | 8.91402 | -79.56064 | 674 ft | 99 kts | 2° |
| 2026-05-05 02:33 | 8.92101 | -79.56018 | 683 ft | 103 kts | 360° |
| 2026-05-05 02:34 | 8.92598 | -79.55978 | 680 ft | 110 kts | 2° |
| 2026-05-05 02:34 | 8.93381 | -79.55914 | 661 ft | 115 kts | 1° |
| 2026-05-05 02:34 | 8.94224 | -79.55855 | 581 ft | 126 kts | 1° |
| 2026-05-05 02:34 | 8.95133 | -79.55779 | 370 ft | 131 kts | 0° |
| 2026-05-05 02:35 | 8.95990 | -79.55686 | 200 ft | 121 kts | 1° |
| 2026-05-05 02:35 | 8.96817 | -79.55603 | 38 ft | 108 kts | 0° |
| 2026-05-05 02:35 | 8.97408 | -79.55553 | 30 ft | 62 kts | 5° |
| 2026-05-05 02:35 | 8.97599 | -79.55539 | 32 ft | 0 kts | 346° |
| 2026-05-05 02:36 | 8.97582 | -79.55640 | 31 ft | 20 kts | 205° |
| 2026-05-05 02:36 | 8.97511 | -79.55671 | 30 ft | 2 kts | 200° |
| 2026-05-05 02:36 | 8.97510 | -79.55671 | 30 ft | 0 kts | 200° |
| 2026-05-05 02:37 | 8.97447 | -79.55695 | 30 ft | 23 kts | 201° |
| 2026-05-05 02:37 | 8.97271 | -79.55773 | 30 ft | 22 kts | 205° |
| 2026-05-05 02:37 | 8.97196 | -79.55821 | 31 ft | 5 kts | 214° |
| 2026-05-05 02:37 | 8.97170 | -79.55802 | 32 ft | 2 kts | 99° |
| 2026-05-05 02:38 | 8.97170 | -79.55800 | 32 ft | 0 kts | 99° |